createdAt,value
2018-05-26T00:00:13.543Z,0.00
2018-05-26T00:01:13.541Z,0.00
2018-05-26T00:02:13.543Z,0.00
2018-05-26T00:03:13.543Z,0.00
2018-05-26T00:04:13.546Z,0.00
2018-05-26T00:05:13.556Z,0.00
2018-05-26T00:06:13.549Z,0.00
2018-05-26T00:07:13.553Z,0.00
2018-05-26T00:08:13.553Z,0.00
2018-05-26T00:09:13.554Z,0.00
2018-05-26T00:10:13.555Z,0.00
2018-05-26T00:11:13.557Z,0.00
2018-05-26T00:12:13.560Z,0.00
2018-05-26T00:13:13.561Z,0.00
2018-05-26T00:14:13.562Z,0.00
2018-05-26T00:15:13.565Z,0.00
2018-05-26T00:16:13.566Z,0.00
2018-05-26T00:17:13.569Z,0.00
2018-05-26T00:18:13.569Z,0.00
2018-05-26T00:19:13.572Z,0.00
2018-05-26T00:20:13.573Z,0.00
2018-05-26T00:21:13.575Z,0.00
2018-05-26T00:22:13.576Z,0.00
2018-05-26T00:23:13.577Z,0.00
2018-05-26T00:24:13.578Z,0.00
2018-05-26T00:25:13.581Z,0.00
2018-05-26T00:26:13.580Z,0.00
2018-05-26T00:27:13.583Z,0.00
2018-05-26T00:28:13.585Z,0.00
2018-05-26T00:29:13.592Z,0.00
2018-05-26T00:30:13.587Z,0.00
2018-05-26T00:31:13.589Z,0.00
2018-05-26T00:32:13.591Z,0.00
2018-05-26T00:33:13.592Z,0.00
2018-05-26T00:34:13.594Z,0.00
2018-05-26T00:35:13.596Z,0.00
2018-05-26T00:36:13.597Z,0.00
2018-05-26T00:38:13.598Z,0.00
2018-05-26T00:39:13.600Z,0.00
2018-05-26T00:40:13.601Z,0.00
2018-05-26T00:41:13.604Z,0.00
2018-05-26T00:42:13.603Z,0.00
2018-05-26T00:43:13.606Z,0.00
2018-05-26T00:44:13.608Z,0.00
2018-05-26T00:45:13.609Z,0.00
2018-05-26T00:46:13.610Z,0.00
2018-05-26T00:47:13.616Z,0.00
2018-05-26T00:48:13.613Z,0.00
2018-05-26T00:49:13.638Z,0.00
2018-05-26T00:50:13.616Z,0.00
2018-05-26T00:51:13.616Z,0.00
2018-05-26T00:52:13.618Z,0.00
2018-05-26T00:53:13.620Z,0.00
2018-05-26T00:54:13.619Z,0.00
2018-05-26T00:55:13.621Z,0.00
2018-05-26T00:56:13.623Z,0.00
2018-05-26T00:57:13.624Z,0.00
2018-05-26T00:58:13.626Z,0.00
2018-05-26T00:59:13.627Z,0.00
2018-05-26T01:00:13.630Z,0.00
2018-05-26T01:01:13.628Z,0.00
2018-05-26T01:02:13.629Z,0.00
2018-05-26T01:03:13.631Z,0.00
2018-05-26T01:04:13.633Z,0.00
2018-05-26T01:05:13.636Z,0.00
2018-05-26T01:06:13.635Z,0.00
2018-05-26T01:07:13.636Z,0.00
2018-05-26T01:08:13.637Z,0.00
2018-05-26T01:09:13.640Z,0.00
2018-05-26T01:10:13.639Z,0.00
2018-05-26T01:11:13.640Z,0.00
2018-05-26T01:12:13.643Z,0.00
2018-05-26T01:13:13.646Z,0.00
2018-05-26T01:14:13.645Z,0.00
2018-05-26T01:15:13.646Z,0.00
2018-05-26T01:16:13.647Z,0.00
2018-05-26T01:17:13.649Z,0.00
2018-05-26T01:18:13.649Z,0.00
2018-05-26T01:19:13.651Z,0.00
2018-05-26T01:20:13.653Z,0.00
2018-05-26T01:21:13.654Z,0.00
2018-05-26T01:22:13.656Z,0.00
2018-05-26T01:23:13.655Z,0.00
2018-05-26T01:24:13.656Z,0.00
2018-05-26T01:25:13.658Z,0.00
2018-05-26T01:26:13.658Z,0.00
2018-05-26T01:27:13.660Z,0.00
2018-05-26T01:28:13.661Z,0.00
2018-05-26T01:29:13.663Z,0.00
2018-05-26T01:30:13.665Z,0.00
2018-05-26T01:31:13.663Z,0.00
2018-05-26T01:32:13.666Z,0.00
2018-05-26T01:33:13.668Z,0.00
2018-05-26T01:34:13.668Z,0.00
2018-05-26T01:35:13.669Z,0.00
2018-05-26T01:36:13.671Z,0.00
2018-05-26T01:37:13.672Z,0.00
2018-05-26T01:38:13.672Z,0.00
2018-05-26T01:39:13.674Z,0.00
2018-05-26T01:40:13.678Z,0.00
2018-05-26T01:41:13.676Z,0.00
2018-05-26T01:42:13.676Z,0.00
2018-05-26T01:43:13.679Z,0.00
2018-05-26T01:44:13.680Z,0.00
2018-05-26T01:45:13.681Z,0.00
2018-05-26T01:46:13.681Z,0.00
2018-05-26T01:47:13.684Z,0.00
2018-05-26T01:48:13.683Z,0.00
2018-05-26T01:49:13.685Z,0.00
2018-05-26T01:50:13.687Z,0.00
2018-05-26T01:51:13.686Z,0.00
2018-05-26T01:52:13.687Z,0.00
2018-05-26T01:53:13.689Z,0.00
2018-05-26T01:54:13.688Z,0.00
2018-05-26T01:55:13.691Z,0.00
2018-05-26T01:56:13.692Z,0.00
2018-05-26T01:57:13.692Z,0.00
2018-05-26T01:58:13.692Z,0.00
2018-05-26T01:59:13.695Z,0.00
2018-05-26T02:00:13.698Z,0.00
2018-05-26T02:01:13.696Z,0.00
2018-05-26T02:02:13.697Z,0.00
2018-05-26T02:03:13.699Z,0.00
2018-05-26T02:04:13.700Z,0.00
2018-05-26T02:05:13.699Z,0.00
2018-05-26T02:06:13.700Z,0.00
2018-05-26T02:07:13.703Z,0.00
2018-05-26T02:08:13.702Z,0.00
2018-05-26T02:09:13.705Z,0.00
2018-05-26T02:10:13.704Z,0.00
2018-05-26T02:11:13.705Z,0.00
2018-05-26T02:12:13.706Z,0.00
2018-05-26T02:13:13.708Z,0.00
2018-05-26T02:14:13.708Z,0.00
2018-05-26T02:15:13.709Z,0.00
2018-05-26T02:16:13.710Z,0.00
2018-05-26T02:17:13.711Z,0.00
2018-05-26T02:18:13.711Z,0.00
2018-05-26T02:19:13.713Z,0.00
2018-05-26T02:20:13.714Z,0.00
2018-05-26T02:21:13.715Z,0.00
2018-05-26T02:22:13.714Z,0.00
2018-05-26T02:23:13.716Z,0.00
2018-05-26T02:24:13.716Z,0.00
2018-05-26T02:25:13.718Z,0.00
2018-05-26T02:26:13.721Z,0.00
2018-05-26T02:27:13.719Z,0.00
2018-05-26T02:28:13.720Z,0.00
2018-05-26T02:29:13.721Z,0.00
2018-05-26T02:30:13.721Z,0.00
2018-05-26T02:31:13.723Z,0.00
2018-05-26T02:32:13.724Z,0.00
2018-05-26T02:33:13.724Z,0.00
2018-05-26T02:34:13.725Z,0.00
2018-05-26T02:35:13.726Z,0.00
2018-05-26T02:36:13.731Z,0.00
2018-05-26T02:37:13.730Z,0.00
2018-05-26T02:38:13.728Z,0.00
2018-05-26T02:39:13.728Z,0.00
2018-05-26T02:40:13.729Z,0.00
2018-05-26T02:41:13.730Z,0.00
2018-05-26T02:42:13.730Z,0.00
2018-05-26T02:43:13.732Z,0.00
2018-05-26T02:44:13.733Z,0.00
2018-05-26T02:45:13.732Z,0.00
2018-05-26T02:46:13.733Z,0.00
2018-05-26T02:47:13.737Z,0.00
2018-05-26T02:48:13.735Z,0.00
2018-05-26T02:49:13.736Z,0.00
2018-05-26T02:50:13.736Z,0.00
2018-05-26T02:51:13.738Z,0.00
2018-05-26T02:52:13.738Z,0.00
2018-05-26T02:53:13.739Z,0.00
2018-05-26T02:54:13.737Z,0.00
2018-05-26T02:55:13.740Z,0.00
2018-05-26T02:56:13.740Z,0.00
2018-05-26T02:57:13.746Z,4.00
2018-05-26T02:58:13.741Z,0.00
2018-05-26T02:59:13.741Z,0.00
2018-05-26T03:00:13.743Z,0.00
2018-05-26T03:01:13.744Z,4.00
2018-05-26T03:02:13.744Z,0.00
2018-05-26T03:03:13.745Z,4.00
2018-05-26T03:04:13.746Z,4.00
2018-05-26T03:05:13.746Z,4.00
2018-05-26T03:06:13.747Z,4.00
2018-05-26T03:07:13.746Z,4.00
2018-05-26T03:08:13.748Z,4.00
2018-05-26T03:09:13.748Z,4.00
2018-05-26T03:10:13.747Z,8.00
2018-05-26T03:11:13.756Z,12.00
2018-05-26T03:12:13.749Z,12.00
2018-05-26T03:13:13.750Z,12.00
2018-05-26T03:14:13.750Z,12.00
2018-05-26T03:15:13.752Z,16.00
2018-05-26T03:16:13.752Z,16.00
2018-05-26T03:17:13.753Z,20.00
2018-05-26T03:18:13.755Z,20.00
2018-05-26T03:19:13.753Z,24.00
2018-05-26T03:20:13.755Z,24.00
2018-05-26T03:21:13.765Z,32.00
2018-05-26T03:22:13.753Z,32.00
2018-05-26T03:23:13.755Z,36.00
2018-05-26T03:24:13.755Z,40.00
2018-05-26T03:25:13.757Z,40.00
2018-05-26T03:26:13.758Z,44.00
2018-05-26T03:27:13.760Z,52.00
2018-05-26T03:28:13.759Z,56.00
2018-05-26T03:29:13.760Z,56.00
2018-05-26T03:30:13.760Z,64.00
2018-05-26T03:31:13.760Z,68.00
2018-05-26T03:32:13.760Z,72.00
2018-05-26T03:33:13.762Z,76.00
2018-05-26T03:34:13.761Z,84.00
2018-05-26T03:35:13.762Z,88.00
2018-05-26T03:36:13.763Z,96.00
2018-05-26T03:37:13.762Z,100.00
2018-05-26T03:38:13.763Z,108.00
2018-05-26T03:39:13.763Z,112.00
2018-05-26T03:40:13.763Z,116.00
2018-05-26T03:41:13.765Z,120.00
2018-05-26T03:42:13.763Z,128.00
2018-05-26T03:43:13.765Z,132.00
2018-05-26T03:44:13.766Z,140.00
2018-05-26T03:45:13.765Z,144.00
2018-05-26T03:46:13.766Z,148.00
2018-05-26T03:47:13.765Z,148.00
2018-05-26T03:48:13.767Z,152.00
2018-05-26T03:49:13.768Z,156.00
2018-05-26T03:50:13.768Z,164.00
2018-05-26T03:51:13.768Z,168.00
2018-05-26T03:52:13.769Z,172.00
2018-05-26T03:53:13.773Z,176.00
2018-05-26T03:54:13.769Z,184.00
2018-05-26T03:55:13.770Z,192.00
2018-05-26T03:56:13.771Z,200.00
2018-05-26T03:57:13.771Z,216.00
2018-05-26T03:58:13.771Z,224.00
2018-05-26T03:59:13.771Z,236.00
2018-05-26T04:00:13.772Z,248.00
2018-05-26T04:01:13.777Z,264.00
2018-05-26T04:02:13.772Z,276.00
2018-05-26T04:03:13.773Z,288.00
2018-05-26T04:04:13.774Z,296.00
2018-05-26T04:05:13.774Z,304.00
2018-05-26T04:06:13.774Z,316.00
2018-05-26T04:07:13.773Z,324.00
2018-05-26T04:08:13.774Z,332.00
2018-05-26T04:09:13.776Z,336.00
2018-05-26T04:10:13.780Z,344.00
2018-05-26T04:11:13.780Z,352.00
2018-05-26T04:12:13.779Z,360.00
2018-05-26T04:13:13.776Z,368.00
2018-05-26T04:14:13.777Z,380.00
2018-05-26T04:15:13.777Z,388.00
2018-05-26T04:16:13.778Z,400.00
2018-05-26T04:17:13.779Z,404.00
2018-05-26T04:18:13.778Z,416.00
2018-05-26T04:19:13.779Z,428.00
2018-05-26T04:20:13.780Z,432.00
2018-05-26T04:21:13.780Z,444.00
2018-05-26T04:22:13.779Z,456.00
2018-05-26T04:23:13.779Z,468.00
2018-05-26T04:24:13.782Z,480.00
2018-05-26T04:25:13.785Z,484.00
2018-05-26T04:26:13.783Z,504.00
2018-05-26T04:27:13.785Z,524.00
2018-05-26T04:28:13.829Z,544.00
2018-05-26T04:29:13.782Z,560.00
2018-05-26T04:30:13.782Z,572.00
2018-05-26T04:31:13.782Z,584.00
2018-05-26T04:32:13.784Z,600.00
2018-05-26T04:33:13.784Z,612.00
2018-05-26T04:34:13.783Z,632.00
2018-05-26T04:35:13.785Z,656.00
2018-05-26T04:36:13.784Z,680.00
2018-05-26T04:37:13.786Z,700.00
2018-05-26T04:38:13.785Z,712.00
2018-05-26T04:39:13.793Z,720.00
2018-05-26T04:40:13.787Z,732.00
2018-05-26T04:41:13.788Z,772.00
2018-05-26T04:42:13.787Z,812.00
2018-05-26T04:43:13.789Z,824.00
2018-05-26T04:44:13.790Z,836.00
2018-05-26T04:45:13.791Z,848.00
2018-05-26T04:46:13.789Z,864.00
2018-05-26T04:47:13.789Z,880.00
2018-05-26T04:48:13.790Z,892.00
2018-05-26T04:49:13.793Z,912.00
2018-05-26T04:50:13.791Z,928.00
2018-05-26T04:51:13.793Z,948.00
2018-05-26T04:52:13.793Z,964.00
2018-05-26T04:53:13.794Z,984.00
2018-05-26T04:54:13.794Z,996.00
2018-05-26T04:55:13.798Z,1016.00
2018-05-26T04:56:13.796Z,1032.00
2018-05-26T04:57:13.795Z,1040.00
2018-05-26T04:58:13.798Z,1068.00
2018-05-26T04:59:13.798Z,1084.00
2018-05-26T05:00:13.803Z,1080.00
2018-05-26T05:01:13.799Z,1044.00
2018-05-26T05:02:13.800Z,1120.00
2018-05-26T05:03:13.801Z,1160.00
2018-05-26T05:04:13.801Z,1168.00
2018-05-26T05:05:13.804Z,1180.00
2018-05-26T05:06:13.803Z,1196.00
2018-05-26T05:07:13.804Z,1220.00
2018-05-26T05:08:13.804Z,1240.00
2018-05-26T05:09:13.806Z,1264.00
2018-05-26T05:10:13.806Z,1280.00
2018-05-26T05:11:13.814Z,1288.00
2018-05-26T05:12:13.813Z,1316.00
2018-05-26T05:13:13.809Z,1332.00
2018-05-26T05:14:13.809Z,1352.00
2018-05-26T05:15:13.811Z,1368.00
2018-05-26T05:16:13.810Z,1376.00
2018-05-26T05:17:13.813Z,1420.00
2018-05-26T05:18:13.815Z,1444.00
2018-05-26T05:19:13.814Z,1464.00
2018-05-26T05:20:13.815Z,1484.00
2018-05-26T05:21:13.817Z,1508.00
2018-05-26T05:22:13.817Z,1520.00
2018-05-26T05:23:13.820Z,1536.00
2018-05-26T05:24:13.820Z,1540.00
2018-05-26T05:25:13.820Z,1572.00
2018-05-26T05:26:13.822Z,1584.00
2018-05-26T05:27:13.824Z,1600.00
2018-05-26T05:28:13.824Z,1616.00
2018-05-26T05:29:13.827Z,1644.00
2018-05-26T05:30:13.825Z,1664.00
2018-05-26T05:31:13.828Z,1680.00
2018-05-26T05:32:13.829Z,1696.00
2018-05-26T05:33:13.830Z,1708.00
2018-05-26T05:34:13.832Z,1716.00
2018-05-26T05:35:13.833Z,1700.00
2018-05-26T05:36:13.833Z,1736.00
2018-05-26T05:37:13.840Z,1780.00
2018-05-26T05:38:13.837Z,1812.00
2018-05-26T05:39:13.837Z,1832.00
2018-05-26T05:40:13.841Z,1852.00
2018-05-26T05:41:13.842Z,1876.00
2018-05-26T05:42:13.848Z,1904.00
2018-05-26T05:43:13.845Z,1928.00
2018-05-26T05:44:13.845Z,1952.00
2018-05-26T05:45:13.848Z,1980.00
2018-05-26T05:46:13.848Z,2000.00
2018-05-26T05:47:13.850Z,2020.00
2018-05-26T05:48:13.851Z,2032.00
2018-05-26T05:49:13.854Z,2052.00
2018-05-26T05:50:13.855Z,2076.00
2018-05-26T05:51:13.856Z,2096.00
2018-05-26T05:52:13.860Z,2120.00
2018-05-26T05:53:13.860Z,2140.00
2018-05-26T05:54:13.862Z,2164.00
2018-05-26T05:55:13.863Z,2172.00
2018-05-26T05:56:13.900Z,2192.00
2018-05-26T05:57:13.866Z,2216.00
2018-05-26T05:58:13.868Z,2236.00
2018-05-26T05:59:13.871Z,2264.00
2018-05-26T06:00:13.872Z,2296.00
2018-05-26T06:01:13.874Z,2312.00
2018-05-26T06:02:13.876Z,2340.00
2018-05-26T06:03:13.879Z,2368.00
2018-05-26T06:04:13.881Z,2388.00
2018-05-26T06:05:13.883Z,2412.00
2018-05-26T06:06:13.885Z,2432.00
2018-05-26T06:07:13.885Z,2452.00
2018-05-26T06:08:13.889Z,2476.00
2018-05-26T06:09:13.892Z,2504.00
2018-05-26T06:10:13.892Z,2524.00
2018-05-26T06:11:13.895Z,2524.00
2018-05-26T06:12:13.896Z,2576.00
2018-05-26T06:13:13.900Z,2616.00
2018-05-26T06:14:13.901Z,2656.00
2018-05-26T06:15:13.959Z,2700.00
2018-05-26T06:16:13.906Z,2732.00
2018-05-26T06:17:13.911Z,2744.00
2018-05-26T06:18:13.912Z,2656.00
2018-05-26T06:19:13.913Z,2824.00
2018-05-26T06:20:13.920Z,2796.00
2018-05-26T06:21:13.919Z,2824.00
2018-05-26T06:22:13.920Z,2864.00
2018-05-26T06:23:13.924Z,2956.00
2018-05-26T06:24:13.927Z,3000.00
2018-05-26T06:25:13.931Z,3032.00
2018-05-26T06:26:13.962Z,3068.00
2018-05-26T06:27:13.936Z,3088.00
2018-05-26T06:28:13.936Z,3100.00
2018-05-26T06:29:13.940Z,2876.00
2018-05-26T06:30:13.943Z,2968.00
2018-05-26T06:31:13.945Z,3156.00
2018-05-26T06:32:13.947Z,3196.00
2018-05-26T06:33:13.950Z,3216.00
2018-05-26T06:34:13.953Z,3232.00
2018-05-26T06:35:13.956Z,3256.00
2018-05-26T06:36:13.959Z,3276.00
2018-05-26T06:37:13.962Z,3284.00
2018-05-26T06:38:13.964Z,3320.00
2018-05-26T06:39:13.968Z,3352.00
2018-05-26T06:40:13.971Z,3372.00
2018-05-26T06:41:13.975Z,3404.00
2018-05-26T06:42:13.977Z,3424.00
2018-05-26T06:43:14.002Z,3440.00
2018-05-26T06:44:13.984Z,3448.00
2018-05-26T06:45:14.002Z,3448.00
2018-05-26T06:46:13.991Z,3492.00
2018-05-26T06:47:13.995Z,3556.00
2018-05-26T06:48:13.996Z,3624.00
2018-05-26T06:49:14.006Z,3680.00
2018-05-26T06:50:14.004Z,3724.00
2018-05-26T06:51:14.009Z,3796.00
2018-05-26T06:52:14.010Z,3844.00
2018-05-26T06:53:14.013Z,3888.00
2018-05-26T06:54:14.017Z,3948.00
2018-05-26T06:55:14.021Z,3964.00
2018-05-26T06:56:14.023Z,3984.00
2018-05-26T06:57:14.034Z,3992.00
2018-05-26T06:58:14.037Z,4032.00
2018-05-26T06:59:14.036Z,4100.00
2018-05-26T07:00:14.078Z,4120.00
2018-05-26T07:01:14.043Z,4112.00
2018-05-26T07:02:14.046Z,4052.00
2018-05-26T07:03:14.053Z,4048.00
2018-05-26T07:04:14.058Z,3856.00
2018-05-26T07:05:14.059Z,3880.00
2018-05-26T07:06:14.061Z,3932.00
2018-05-26T07:07:14.068Z,3920.00
2018-05-26T07:08:14.069Z,4036.00
2018-05-26T07:09:14.073Z,3916.00
2018-05-26T07:10:14.076Z,4096.00
2018-05-26T07:11:14.080Z,4040.00
2018-05-26T07:12:14.084Z,4084.00
2018-05-26T07:13:14.091Z,4100.00
2018-05-26T07:14:14.092Z,4268.00
2018-05-26T07:15:14.095Z,4540.00
2018-05-26T07:16:14.100Z,5232.00
2018-05-26T07:17:14.104Z,11680.00
2018-05-26T07:18:14.107Z,12136.00
2018-05-26T07:19:14.111Z,13400.00
2018-05-26T07:20:14.115Z,23616.00
2018-05-26T07:21:14.120Z,38016.00
2018-05-26T07:22:14.125Z,43328.00
2018-05-26T07:23:14.129Z,35936.00
2018-05-26T07:24:14.135Z,22176.00
2018-05-26T07:25:14.142Z,18976.00
2018-05-26T07:26:14.144Z,27232.00
2018-05-26T07:27:14.151Z,42816.00
2018-05-26T07:28:14.158Z,39808.00
2018-05-26T07:29:14.168Z,22720.00
2018-05-26T07:30:14.169Z,35904.00
2018-05-26T07:31:14.176Z,61824.00
2018-05-26T07:32:14.184Z,54368.00
2018-05-26T07:33:14.191Z,42016.00
2018-05-26T07:34:14.198Z,49408.00
2018-05-26T07:35:14.210Z,46240.00
2018-05-26T07:36:14.214Z,30080.00
2018-05-26T07:37:14.226Z,24480.00
2018-05-26T07:38:14.229Z,21984.00
2018-05-26T07:39:14.238Z,8980.00
2018-05-26T07:40:14.247Z,6016.00
2018-05-26T07:41:14.257Z,16800.00
2018-05-26T07:42:14.262Z,14204.00
2018-05-26T07:43:14.271Z,8512.00
2018-05-26T07:44:14.297Z,5584.00
2018-05-26T07:45:14.286Z,20384.00
2018-05-26T07:46:14.370Z,40288.00
2018-05-26T07:47:14.325Z,41600.00
2018-05-26T07:48:14.393Z,37664.00
2018-05-26T07:49:14.355Z,37920.00
2018-05-26T07:50:14.325Z,57664.00
2018-05-26T07:51:14.332Z,56896.00
2018-05-26T07:52:14.342Z,68288.00
2018-05-26T07:53:14.358Z,62432.00
2018-05-26T07:54:14.358Z,43136.00
2018-05-26T07:55:14.370Z,39232.00
2018-05-26T07:56:14.376Z,52096.00
2018-05-26T07:57:14.389Z,70656.00
2018-05-26T07:58:14.394Z,64032.00
2018-05-26T07:59:14.405Z,65312.00
2018-05-26T08:00:14.424Z,74080.00
2018-05-26T08:01:14.427Z,76608.00
2018-05-26T08:02:14.438Z,74880.00
2018-05-26T08:03:14.449Z,73536.00
2018-05-26T08:04:14.462Z,73056.00
2018-05-26T08:05:14.475Z,72320.00
2018-05-26T08:06:14.487Z,68832.00
2018-05-26T08:07:14.505Z,72128.00
2018-05-26T08:08:14.514Z,70752.00
2018-05-26T08:09:14.527Z,69664.00
2018-05-26T08:10:14.541Z,67168.00
2018-05-26T08:11:14.557Z,64768.00
2018-05-26T08:12:14.575Z,63456.00
2018-05-26T08:13:14.585Z,64864.00
2018-05-26T08:14:14.601Z,72768.00
2018-05-26T08:15:14.617Z,73984.00
2018-05-26T08:16:14.631Z,72416.00
2018-05-26T08:17:14.703Z,71904.00
2018-05-26T08:18:14.663Z,76704.00
2018-05-26T08:19:14.681Z,71872.00
2018-05-26T08:20:14.697Z,66592.00
2018-05-26T08:21:14.712Z,66144.00
2018-05-26T08:22:14.727Z,66112.00
2018-05-26T08:23:14.743Z,71968.00
2018-05-26T08:24:14.760Z,71872.00
2018-05-26T08:25:14.777Z,66016.00
2018-05-26T08:26:14.791Z,63232.00
2018-05-26T08:27:14.812Z,58624.00
2018-05-26T08:28:14.827Z,54208.00
2018-05-26T08:29:14.845Z,53152.00
2018-05-26T08:30:14.860Z,57984.00
2018-05-26T08:31:14.877Z,59264.00
2018-05-26T08:32:14.892Z,63232.00
2018-05-26T08:33:14.910Z,63328.00
2018-05-26T08:34:14.927Z,52416.00
2018-05-26T08:35:14.942Z,58080.00
2018-05-26T08:36:14.958Z,55520.00
2018-05-26T08:37:14.977Z,58944.00
2018-05-26T08:38:14.991Z,65120.00
2018-05-26T08:39:15.009Z,65792.00
2018-05-26T08:40:15.026Z,64544.00
2018-05-26T08:41:15.083Z,60320.00
2018-05-26T08:42:15.061Z,55520.00
2018-05-26T08:43:15.076Z,62080.00
2018-05-26T08:44:15.091Z,51328.00
2018-05-26T08:45:15.108Z,34656.00
2018-05-26T08:46:15.124Z,44416.00
2018-05-26T08:47:15.142Z,48512.00
2018-05-26T08:48:15.160Z,56800.00
2018-05-26T08:49:15.175Z,55520.00
2018-05-26T08:50:15.192Z,43008.00
2018-05-26T08:51:15.209Z,40640.00
2018-05-26T08:52:15.224Z,40064.00
2018-05-26T08:53:15.238Z,29664.00
2018-05-26T08:54:15.258Z,22432.00
2018-05-26T08:55:15.269Z,16308.00
2018-05-26T08:56:15.285Z,17312.00
2018-05-26T08:57:15.299Z,14600.00
2018-05-26T08:58:15.313Z,9264.00
2018-05-26T08:59:15.329Z,7044.00
2018-05-26T09:00:15.340Z,6108.00
2018-05-26T09:01:15.353Z,6164.00
2018-05-26T09:02:15.425Z,10224.00
2018-05-26T09:03:15.378Z,14896.00
2018-05-26T09:04:15.393Z,20224.00
2018-05-26T09:05:15.401Z,17440.00
2018-05-26T09:06:15.411Z,21280.00
2018-05-26T09:07:15.423Z,24224.00
2018-05-26T09:08:15.433Z,33120.00
2018-05-26T09:09:15.445Z,46912.00
2018-05-26T09:10:15.456Z,47200.00
2018-05-26T09:11:15.489Z,42016.00
2018-05-26T09:12:15.480Z,47456.00
2018-05-26T09:13:15.492Z,50144.00
2018-05-26T09:14:15.506Z,50464.00
2018-05-26T09:15:15.516Z,49664.00
2018-05-26T09:16:15.577Z,43616.00
2018-05-26T09:17:15.541Z,43840.00
2018-05-26T09:18:15.553Z,46080.00
2018-05-26T09:19:15.568Z,46944.00
2018-05-26T09:20:15.579Z,47488.00
2018-05-26T09:21:15.593Z,45888.00
2018-05-26T09:22:15.606Z,45408.00
2018-05-26T09:23:15.624Z,46208.00
2018-05-26T09:24:15.638Z,46176.00
2018-05-26T09:25:15.748Z,47392.00
2018-05-26T09:26:15.668Z,45280.00
2018-05-26T09:27:15.678Z,38336.00
2018-05-26T09:28:15.694Z,38464.00
2018-05-26T09:29:15.713Z,42912.00
2018-05-26T09:30:15.736Z,40640.00
2018-05-26T09:31:15.748Z,39200.00
2018-05-26T09:32:15.753Z,38688.00
2018-05-26T09:33:15.769Z,40096.00
2018-05-26T09:34:15.782Z,39968.00
2018-05-26T09:35:15.805Z,37920.00
2018-05-26T09:36:15.812Z,37216.00
2018-05-26T09:37:15.828Z,37120.00
2018-05-26T09:38:15.841Z,36512.00
2018-05-26T09:39:15.857Z,34208.00
2018-05-26T09:40:15.872Z,33984.00
2018-05-26T09:41:15.888Z,33696.00
2018-05-26T09:42:15.901Z,30560.00
2018-05-26T09:43:15.917Z,31424.00
2018-05-26T09:44:15.932Z,32352.00
2018-05-26T09:45:15.947Z,31616.00
2018-05-26T09:46:15.962Z,31520.00
2018-05-26T09:47:15.977Z,30240.00
2018-05-26T09:48:15.992Z,29216.00
2018-05-26T09:49:16.007Z,29728.00
2018-05-26T09:50:16.021Z,28640.00
2018-05-26T09:51:16.035Z,26208.00
2018-05-26T09:52:16.055Z,24928.00
2018-05-26T09:53:16.067Z,23776.00
2018-05-26T09:54:16.080Z,22144.00
2018-05-26T09:55:16.093Z,24576.00
2018-05-26T09:56:16.110Z,24832.00
2018-05-26T09:57:16.125Z,23168.00
2018-05-26T09:58:16.139Z,24864.00
2018-05-26T09:59:16.153Z,24896.00
2018-05-26T10:00:16.167Z,23904.00
2018-05-26T10:01:16.187Z,23328.00
2018-05-26T10:02:16.196Z,23488.00
2018-05-26T10:03:16.214Z,23008.00
2018-05-26T10:04:16.259Z,20416.00
2018-05-26T10:05:16.245Z,19072.00
2018-05-26T10:06:16.252Z,18656.00
2018-05-26T10:07:16.267Z,18880.00
2018-05-26T10:08:16.281Z,17568.00
2018-05-26T10:09:16.306Z,17024.00
2018-05-26T10:10:16.309Z,17920.00
2018-05-26T10:11:16.326Z,17280.00
2018-05-26T10:12:16.338Z,16224.00
2018-05-26T10:13:16.351Z,15232.00
2018-05-26T10:14:16.363Z,16640.00
2018-05-26T10:15:16.377Z,16544.00
2018-05-26T10:16:16.391Z,14752.00
2018-05-26T10:17:16.406Z,17120.00
2018-05-26T10:18:16.419Z,18144.00
2018-05-26T10:19:16.433Z,17152.00
2018-05-26T10:20:16.446Z,17856.00
2018-05-26T10:21:16.460Z,13728.00
2018-05-26T10:22:16.473Z,9564.00
2018-05-26T10:23:16.491Z,8736.00
2018-05-26T10:24:16.501Z,8216.00
2018-05-26T10:25:16.517Z,7972.00
2018-05-26T10:26:16.569Z,7824.00
2018-05-26T10:27:16.542Z,7408.00
2018-05-26T10:28:16.557Z,7184.00
2018-05-26T10:29:16.577Z,7724.00
2018-05-26T10:30:16.585Z,7840.00
2018-05-26T10:31:16.599Z,7828.00
2018-05-26T10:32:16.617Z,7728.00
2018-05-26T10:33:16.629Z,7732.00
2018-05-26T10:34:16.641Z,7684.00
2018-05-26T10:35:16.657Z,7668.00
2018-05-26T10:36:16.671Z,7520.00
2018-05-26T10:37:16.684Z,7360.00
2018-05-26T10:38:16.697Z,7264.00
2018-05-26T10:39:16.717Z,7140.00
2018-05-26T10:40:16.730Z,7044.00
2018-05-26T10:41:16.741Z,7108.00
2018-05-26T10:42:16.755Z,7156.00
2018-05-26T10:43:16.769Z,7128.00
2018-05-26T10:44:16.787Z,7136.00
2018-05-26T10:45:16.796Z,7108.00
2018-05-26T10:46:16.811Z,7072.00
2018-05-26T10:47:16.886Z,7068.00
2018-05-26T10:48:16.838Z,7000.00
2018-05-26T10:49:16.852Z,7016.00
2018-05-26T10:50:16.866Z,6744.00
2018-05-26T10:51:16.880Z,6796.00
2018-05-26T10:52:16.893Z,6864.00
2018-05-26T10:53:16.912Z,6820.00
2018-05-26T10:54:16.920Z,7184.00
2018-05-26T10:55:16.935Z,7236.00
2018-05-26T10:56:16.956Z,7408.00
2018-05-26T10:57:16.964Z,7508.00
2018-05-26T10:58:16.978Z,7500.00
2018-05-26T10:59:16.994Z,7548.00
2018-05-26T11:00:17.006Z,7556.00
2018-05-26T11:01:17.020Z,7476.00
2018-05-26T11:02:17.033Z,7508.00
2018-05-26T11:03:17.046Z,7440.00
2018-05-26T11:04:17.078Z,7420.00
2018-05-26T11:05:17.074Z,7208.00
2018-05-26T11:06:17.101Z,7156.00
2018-05-26T11:07:17.101Z,6832.00
2018-05-26T11:08:17.114Z,7176.00
2018-05-26T11:09:17.128Z,7472.00
2018-05-26T11:10:17.140Z,7464.00
2018-05-26T11:11:17.153Z,7448.00
2018-05-26T11:12:17.167Z,7636.00
2018-05-26T11:13:17.183Z,7892.00
2018-05-26T11:14:17.192Z,7992.00
2018-05-26T11:15:17.205Z,7824.00
2018-05-26T11:16:17.232Z,7616.00
2018-05-26T11:17:17.238Z,7464.00
2018-05-26T11:18:17.243Z,7452.00
2018-05-26T11:19:17.257Z,7304.00
2018-05-26T11:20:17.325Z,7428.00
2018-05-26T11:21:17.284Z,7376.00
2018-05-26T11:22:17.295Z,7556.00
2018-05-26T11:23:17.312Z,7648.00
2018-05-26T11:24:17.339Z,7608.00
2018-05-26T11:25:17.334Z,7904.00
2018-05-26T11:26:17.368Z,7924.00
2018-05-26T11:27:17.358Z,7976.00
2018-05-26T11:28:17.378Z,7868.00
2018-05-26T11:29:17.386Z,7572.00
2018-05-26T11:30:17.397Z,7516.00
2018-05-26T11:31:17.410Z,7736.00
2018-05-26T11:32:17.425Z,7736.00
2018-05-26T11:33:17.443Z,7828.00
2018-05-26T11:34:17.451Z,7784.00
2018-05-26T11:35:17.468Z,7840.00
2018-05-26T11:36:17.477Z,7616.00
2018-05-26T11:37:17.492Z,7676.00
2018-05-26T11:38:17.503Z,7512.00
2018-05-26T11:39:17.517Z,7460.00
2018-05-26T11:40:17.531Z,7584.00
2018-05-26T11:41:17.579Z,7580.00
2018-05-26T11:42:17.557Z,7620.00
2018-05-26T11:43:17.570Z,7616.00
2018-05-26T11:44:17.583Z,7584.00
2018-05-26T11:45:17.597Z,7544.00
2018-05-26T11:46:17.609Z,7416.00
2018-05-26T11:47:17.623Z,7276.00
2018-05-26T11:48:17.636Z,7460.00
2018-05-26T11:49:17.649Z,7360.00
2018-05-26T11:50:17.662Z,7440.00
2018-05-26T11:51:17.675Z,7468.00
2018-05-26T11:52:17.687Z,7668.00
2018-05-26T11:53:17.703Z,7756.00
2018-05-26T11:54:17.713Z,7752.00
2018-05-26T11:55:17.725Z,7660.00
2018-05-26T11:56:17.738Z,7668.00
2018-05-26T11:57:17.750Z,7784.00
2018-05-26T11:58:17.763Z,7816.00
2018-05-26T11:59:17.775Z,7844.00
2018-05-26T12:00:17.787Z,7876.00
2018-05-26T12:01:17.799Z,7916.00
2018-05-26T12:02:17.811Z,7900.00
2018-05-26T12:03:17.823Z,7952.00
2018-05-26T12:04:17.837Z,8000.00
2018-05-26T12:05:17.850Z,8080.00
2018-05-26T12:06:17.861Z,8096.00
2018-05-26T12:07:17.874Z,8156.00
2018-05-26T12:08:17.886Z,8252.00
2018-05-26T12:09:17.900Z,8316.00
2018-05-26T12:10:17.911Z,8420.00
2018-05-26T12:11:17.925Z,8456.00
2018-05-26T12:12:17.935Z,8376.00
2018-05-26T12:13:17.954Z,8288.00
2018-05-26T12:14:17.960Z,8136.00
2018-05-26T12:15:17.975Z,8224.00
2018-05-26T12:16:17.990Z,8272.00
2018-05-26T12:17:18.001Z,8228.00
2018-05-26T12:18:18.019Z,7852.00
2018-05-26T12:19:18.025Z,7796.00
2018-05-26T12:20:18.039Z,7328.00
2018-05-26T12:21:18.050Z,7108.00
2018-05-26T12:22:18.062Z,7064.00